Time;durP1;ratioP1;P1;durP2;ratioP2;P2;SDS_P1;SDS_P2;PMS_P1;PMS_P2;Temp;Humidity;BMP_temperature;BMP_pressure;BME280_temperature;BME280_humidity;BME280_pressure;Samples;Min_cycle;Max_cycle;Signal;HPM_P1;HPM_P2
2023/08/09 00:01:10;;;;;;;6.40;4.20;;;;;;;17.03;90.61;99725.34;105956;1254;60920;-74
2023/08/09 00:03:38;;;;;;;5.70;4.50;;;;;;;17.01;90.96;99725.80;105595;1254;71855;-75
2023/08/09 00:06:06;;;;;;;6.00;4.10;;;;;;;16.99;90.86;99731.54;105681;1252;70304;-75
2023/08/09 00:08:33;;;;;;;6.60;4.70;;;;;;;16.99;90.87;99732.86;105951;1252;72418;-75
2023/08/09 00:11:01;;;;;;;5.60;4.40;;;;;;;16.95;90.71;99729.81;105862;1254;61693;-74
2023/08/09 00:13:28;;;;;;;5.10;4.10;;;;;;;16.88;90.45;99731.56;106033;1256;59624;-73
2023/08/09 00:15:56;;;;;;;5.70;4.60;;;;;;;16.81;90.47;99730.55;106010;1253;73110;-74
2023/08/09 00:18:23;;;;;;;6.10;4.30;;;;;;;16.71;90.74;99736.06;105738;1256;69961;-74
2023/08/09 00:20:51;;;;;;;4.50;4.10;;;;;;;16.64;90.77;99735.85;105827;1254;72649;-75
2023/08/09 00:23:21;;;;;;;6.60;4.30;;;;;;;16.64;91.23;99739.32;105608;1254;60031;-74
2023/08/09 00:25:48;;;;;;;7.10;4.40;;;;;;;16.62;91.84;99739.57;105702;1254;60101;-75
2023/08/09 00:28:15;;;;;;;4.40;3.90;;;;;;;16.64;91.97;99740.39;105864;1251;71749;-76
2023/08/09 00:30:43;;;;;;;5.20;4.00;;;;;;;16.65;91.46;99742.32;106139;1254;68991;-76
2023/08/09 00:33:11;;;;;;;8.90;4.90;;;;;;;16.59;91.24;99744.10;105781;1256;72708;-75
2023/08/09 00:35:39;;;;;;;9.10;4.60;;;;;;;16.51;91.50;99745.73;105947;1255;60739;-74
2023/08/09 00:38:07;;;;;;;4.70;4.20;;;;;;;16.48;91.80;99742.05;105952;1254;60721;-76
2023/08/09 00:40:34;;;;;;;4.80;4.10;;;;;;;16.46;92.13;99743.49;105804;1259;73603;-76
2023/08/09 00:43:02;;;;;;;6.40;4.60;;;;;;;16.40;92.37;99740.90;106097;1254;70530;-74
2023/08/09 00:45:29;;;;;;;5.20;4.10;;;;;;;16.36;92.60;99746.50;105917;1259;71476;-74
2023/08/09 00:47:58;;;;;;;5.00;3.90;;;;;;;16.36;92.37;99748.13;105821;1254;61795;-75
2023/08/09 00:50:26;;;;;;;7.70;4.20;;;;;;;16.33;92.26;99752.02;105877;1256;60009;-73
2023/08/09 00:52:54;;;;;;;4.80;4.20;;;;;;;16.24;92.67;99758.16;106004;1254;71436;-73
2023/08/09 00:55:21;;;;;;;4.70;3.90;;;;;;;16.21;93.09;99757.20;105786;1254;69480;-73
2023/08/09 00:57:49;;;;;;;5.00;4.20;;;;;;;16.25;92.63;99762.50;106055;1254;72729;-75
2023/08/09 01:00:17;;;;;;;6.60;4.30;;;;;;;16.28;92.03;99764.69;106063;1254;60111;-74
2023/08/09 01:02:45;;;;;;;5.00;4.20;;;;;;;16.20;91.55;99766.65;106017;1256;60069;-73
2023/08/09 01:05:13;;;;;;;4.60;4.00;;;;;;;16.10;91.31;99763.17;106012;1254;73992;-73
2023/08/09 01:07:53;;;;;;;7.30;3.90;;;;;;;16.03;91.07;99768.33;105825;1254;69612;-72
2023/08/09 01:10:34;;;;;;;7.00;4.30;;;;;;;15.99;91.33;99771.80;105616;1256;71533;-73
2023/08/09 01:13:05;;;;;;;6.00;4.90;;;;;;;15.87;91.53;99771.11;105802;1254;60071;-73
2023/08/09 01:15:33;;;;;;;5.80;4.20;;;;;;;15.79;92.07;99772.27;105748;1254;60014;-71
2023/08/09 01:18:02;;;;;;;4.60;4.10;;;;;;;15.77;91.86;99774.11;106066;1253;72106;-74
2023/08/09 01:20:30;;;;;;;7.00;3.70;;;;;;;15.73;92.06;99773.30;105907;1254;70531;-73
2023/08/09 01:23:09;;;;;;;7.60;4.40;;;;;;;15.71;92.33;99777.22;105706;1256;72467;-73
2023/08/09 01:25:38;;;;;;;5.40;4.40;;;;;;;15.65;92.46;99781.04;106003;1254;59714;-74
2023/08/09 01:28:06;;;;;;;6.40;4.40;;;;;;;15.57;92.57;99778.77;105373;1254;60084;-73
2023/08/09 01:30:33;;;;;;;5.80;4.10;;;;;;;15.56;92.89;99779.67;106558;1252;72053;-74
2023/08/09 01:33:00;;;;;;;9.50;4.80;;;;;;;15.60;93.17;99782.33;106074;1254;68817;-74
2023/08/09 01:35:30;;;;;;;5.20;4.10;;;;;;;15.60;93.19;99782.90;105555;1254;72731;-73
2023/08/09 01:38:04;;;;;;;7.30;4.30;;;;;;;15.58;93.30;99783.10;105779;1252;63233;-73
2023/08/09 01:40:31;;;;;;;5.50;3.80;;;;;;;15.65;93.23;99784.94;105840;1252;59749;-73
2023/08/09 01:42:59;;;;;;;5.10;3.90;;;;;;;15.69;92.89;99792.05;105480;1254;73122;-74
2023/08/09 01:45:26;;;;;;;4.60;4.20;;;;;;;15.68;92.78;99792.09;105392;1259;68710;-73
2023/08/09 01:47:55;;;;;;;9.00;3.80;;;;;;;15.61;92.46;99794.48;105757;1254;71056;-72
2023/08/09 01:50:26;;;;;;;20.20;4.70;;;;;;;15.61;92.69;99794.11;105339;1253;61665;-73
2023/08/09 01:52:55;;;;;;;6.00;4.80;;;;;;;15.61;92.42;99796.34;105439;1257;60364;-73
2023/08/09 01:55:26;;;;;;;5.70;4.40;;;;;;;15.54;92.64;99795.77;105796;1254;72891;-75
2023/08/09 01:57:54;;;;;;;7.20;4.10;;;;;;;15.46;93.02;99801.51;105511;1256;69214;-75
2023/08/09 02:00:22;;;;;;;5.20;4.30;;;;;;;15.47;93.13;99800.31;105570;1254;72923;-74
2023/08/09 02:02:51;;;;;;;6.20;4.10;;;;;;;15.49;93.61;99800.65;105949;1254;60471;-74
2023/08/09 02:05:19;;;;;;;5.30;4.80;;;;;;;15.49;93.93;99804.07;105917;1256;60348;-73
2023/08/09 02:07:46;;;;;;;6.30;4.00;;;;;;;15.51;93.86;99807.95;105474;1254;72670;-71
2023/08/09 02:10:15;;;;;;;5.20;4.00;;;;;;;15.59;93.47;99813.88;105704;1256;68100;-72
2023/08/09 02:12:47;;;;;;;8.10;4.90;;;;;;;15.64;93.00;99813.40;105704;1258;74674;-73
2023/08/09 02:15:15;;;;;;;7.00;4.60;;;;;;;15.59;92.38;99811.08;105823;1254;60597;-74
2023/08/09 02:17:43;;;;;;;5.60;4.00;;;;;;;15.49;92.39;99811.24;105653;1251;60476;-74
2023/08/09 02:20:11;;;;;;;7.10;4.60;;;;;;;15.48;92.43;99814.44;105684;1254;73965;-74
2023/08/09 02:22:39;;;;;;;7.80;4.10;;;;;;;15.43;92.56;99813.11;105892;1254;70294;-75
2023/08/09 02:25:07;;;;;;;5.40;4.90;;;;;;;15.37;93.24;99816.89;106504;1253;71474;-72
2023/08/09 02:27:35;;;;;;;5.90;4.40;;;;;;;15.34;93.67;99820.10;107043;1254;61649;-74
2023/08/09 02:30:03;;;;;;;9.70;4.10;;;;;;;15.38;93.51;99821.03;107524;1254;60309;-73
2023/08/09 02:32:31;;;;;;;5.40;4.10;;;;;;;15.41;93.33;99822.96;106595;1254;72547;-72
2023/08/09 02:34:58;;;;;;;6.10;4.60;;;;;;;15.39;93.87;99826.13;105750;1254;69956;-74
2023/08/09 02:37:27;;;;;;;5.10;4.20;;;;;;;15.34;93.61;99829.65;105955;1258;72504;-74
2023/08/09 02:39:55;;;;;;;6.30;4.40;;;;;;;15.34;93.94;99827.77;105755;1253;61701;-74
2023/08/09 02:42:23;;;;;;;16.50;13.10;;;;;;;15.38;93.69;99831.27;105735;1257;60383;-75
2023/08/09 02:44:51;;;;;;;5.90;4.80;;;;;;;15.33;93.62;99832.44;106067;1255;73940;-72
2023/08/09 02:47:19;;;;;;;8.60;4.40;;;;;;;15.27;93.88;99837.55;105710;1254;67867;-74
2023/08/09 02:49:46;;;;;;;4.60;4.10;;;;;;;15.31;93.72;99840.38;105616;1259;72639;-73
2023/08/09 02:52:13;;;;;;;5.80;4.70;;;;;;;15.30;93.59;99840.29;105739;1257;60625;-74
2023/08/09 02:54:41;;;;;;;5.40;4.90;;;;;;;15.22;93.72;99850.81;105834;1258;59879;-74
2023/08/09 02:57:11;;;;;;;7.20;4.90;;;;;;;15.10;94.04;99852.80;105944;1257;72532;-74
2023/08/09 02:59:39;;;;;;;8.00;4.30;;;;;;;15.08;94.25;99854.23;106011;1257;69018;-72
2023/08/09 03:02:07;;;;;;;7.30;4.70;;;;;;;15.10;94.38;99858.36;105573;1254;72715;-75
2023/08/09 03:04:35;;;;;;;7.10;5.10;;;;;;;15.06;94.66;99859.19;105907;1255;60440;-74
2023/08/09 03:07:02;;;;;;;7.10;4.90;;;;;;;15.02;95.19;99861.70;105488;1253;60482;-72
2023/08/09 03:09:31;;;;;;;8.50;6.60;;;;;;;15.07;95.26;99858.02;105994;1254;73900;-74
2023/08/09 03:11:59;;;;;;;7.30;4.30;;;;;;;15.13;95.12;99859.39;105694;1253;68303;-72
2023/08/09 03:14:27;;;;;;;7.30;4.90;;;;;;;15.10;94.95;99857.04;105691;1254;72885;-71
2023/08/09 03:16:54;;;;;;;6.70;4.90;;;;;;;15.05;95.09;99856.10;105971;1255;61801;-73
2023/08/09 03:19:22;;;;;;;5.50;3.90;;;;;;;15.08;95.29;99856.73;105437;1254;60523;-72
2023/08/09 03:21:49;;;;;;;5.10;4.30;;;;;;;15.13;95.51;99857.15;105449;1253;72928;-74
2023/08/09 03:24:17;;;;;;;6.20;5.60;;;;;;;15.10;95.24;99859.42;105885;1253;70493;-74
2023/08/09 03:26:45;;;;;;;7.30;5.10;;;;;;;15.01;95.48;99863.05;105809;1254;72623;-74
2023/08/09 03:29:15;;;;;;;5.00;4.50;;;;;;;15.05;95.87;99864.69;105895;1257;60405;-73
2023/08/09 03:31:43;;;;;;;5.70;4.60;;;;;;;15.09;95.52;99865.23;105972;1256;60383;-72
2023/08/09 03:34:11;;;;;;;6.60;5.10;;;;;;;15.08;96.12;99866.98;105701;1252;73425;-74
2023/08/09 03:36:39;;;;;;;7.20;4.60;;;;;;;15.06;96.43;99872.36;105628;1252;69982;-73
2023/08/09 03:39:07;;;;;;;8.70;4.30;;;;;;;15.11;96.02;99877.50;105949;1254;72680;-73
2023/08/09 03:41:34;;;;;;;5.90;4.30;;;;;;;15.18;96.18;99882.48;105869;1253;60555;-71
2023/08/09 03:44:03;;;;;;;8.20;5.30;;;;;;;15.21;96.02;99883.71;105430;1254;60492;-72
2023/08/09 03:46:30;;;;;;;8.90;4.60;;;;;;;15.23;96.00;99888.94;106062;1254;73918;-73
2023/08/09 03:48:58;;;;;;;6.50;5.00;;;;;;;15.32;95.42;99891.08;105843;1256;68806;-71
2023/08/09 03:51:27;;;;;;;7.10;5.10;;;;;;;15.41;95.29;99890.27;105856;1254;71529;-73
2023/08/09 03:53:54;;;;;;;5.70;5.00;;;;;;;15.46;95.48;99890.88;105992;1257;60337;-74
2023/08/09 03:56:22;;;;;;;9.30;5.30;;;;;;;15.50;95.18;99890.36;105998;1256;60348;-75
2023/08/09 03:58:50;;;;;;;5.60;4.50;;;;;;;15.58;94.21;99890.41;106046;1254;72321;-75
2023/08/09 04:01:17;;;;;;;5.80;5.20;;;;;;;15.65;93.97;99891.45;106079;1254;69939;-77
2023/08/09 04:03:45;;;;;;;7.10;5.50;;;;;;;15.67;94.36;99890.89;106008;1254;72673;-74
2023/08/09 04:06:13;;;;;;;6.00;5.00;;;;;;;15.69;94.46;99894.06;106494;1254;61630;-74
2023/08/09 04:08:40;;;;;;;5.70;5.00;;;;;;;15.78;94.48;99893.02;105745;1254;60514;-75
2023/08/09 04:11:08;;;;;;;6.30;5.10;;;;;;;15.91;94.16;99896.34;105934;1259;73838;-74
2023/08/09 04:13:35;;;;;;;6.40;5.30;;;;;;;16.03;94.40;99896.60;105907;1254;70755;-73
2023/08/09 04:16:03;;;;;;;7.20;4.40;;;;;;;16.16;94.28;99895.63;105956;1254;72668;-73
2023/08/09 04:18:31;;;;;;;8.00;4.90;;;;;;;16.38;93.82;99898.54;106040;1253;61676;-74
2023/08/09 04:20:59;;;;;;;8.80;4.80;;;;;;;16.61;93.89;99895.95;105906;1254;60897;-75
2023/08/09 04:23:26;;;;;;;5.30;4.30;;;;;;;16.81;93.07;99899.09;105990;1254;72557;-74
2023/08/09 04:25:54;;;;;;;7.30;4.30;;;;;;;16.97;90.85;99902.84;105855;1253;69224;-75
2023/08/09 04:28:21;;;;;;;8.50;4.60;;;;;;;17.06;89.32;99903.87;105524;1254;71228;-74
2023/08/09 04:30:49;;;;;;;5.90;4.50;;;;;;;17.03;87.35;99909.02;105859;1254;61830;-74
2023/08/09 04:33:17;;;;;;;5.90;3.90;;;;;;;17.05;87.71;99904.85;105576;1256;60489;-71
2023/08/09 04:35:44;;;;;;;5.40;4.80;;;;;;;17.09;87.89;99909.98;106040;1254;72408;-72
2023/08/09 04:38:11;;;;;;;6.60;4.20;;;;;;;17.24;89.82;99910.00;105941;1256;69825;-74
2023/08/09 04:40:39;;;;;;;6.00;4.20;;;;;;;17.49;91.10;99914.85;105860;1254;72772;-74
2023/08/09 04:43:07;;;;;;;5.50;4.20;;;;;;;17.71;90.75;99916.34;105834;1258;60404;-74
2023/08/09 04:45:35;;;;;;;6.00;4.30;;;;;;;17.84;90.42;99918.80;105831;1257;60499;-72
2023/08/09 04:48:05;;;;;;;4.70;3.80;;;;;;;17.92;88.13;99918.30;106239;1252;73832;-77
2023/08/09 04:50:33;;;;;;;5.50;4.00;;;;;;;18.00;85.87;99920.63;106227;1256;69309;-78
2023/08/09 04:53:00;;;;;;;6.40;4.40;;;;;;;18.03;85.82;99921.65;106768;1253;72742;-75
2023/08/09 04:55:28;;;;;;;6.40;3.80;;;;;;;18.06;86.92;99921.18;106335;1254;60575;-77
2023/08/09 04:57:55;;;;;;;7.70;4.40;;;;;;;18.17;86.84;99919.27;106112;1254;60440;-77
2023/08/09 05:00:22;;;;;;;4.50;3.70;;;;;;;18.24;84.97;99921.48;106016;1254;74169;-75
2023/08/09 05:02:50;;;;;;;6.50;3.80;;;;;;;18.25;84.05;99921.89;106052;1257;69208;-75
2023/08/09 05:05:18;;;;;;;6.00;4.10;;;;;;;18.29;83.42;99926.38;106110;1256;72671;-76
2023/08/09 05:07:45;;;;;;;6.50;3.70;;;;;;;18.39;83.00;99929.30;105966;1253;61851;-75
2023/08/09 05:10:13;;;;;;;8.10;3.90;;;;;;;18.44;81.65;99928.61;106019;1254;60550;-76
2023/08/09 05:12:40;;;;;;;6.30;4.10;;;;;;;18.43;81.19;99928.33;106447;1254;73795;-76
2023/08/09 05:15:08;;;;;;;4.60;3.70;;;;;;;18.42;79.90;99926.52;106638;1254;68934;-75
2023/08/09 05:17:36;;;;;;;8.00;4.00;;;;;;;18.50;80.01;99924.94;106223;1254;71311;-79
2023/08/09 05:20:04;;;;;;;5.40;4.00;;;;;;;18.58;80.79;99919.80;106525;1254;60571;-82
2023/08/09 05:22:31;;;;;;;6.30;4.40;;;;;;;18.62;80.40;99921.11;106199;1254;60600;-78
2023/08/09 05:25:02;;;;;;;6.20;3.90;;;;;;;18.64;79.65;99927.02;106558;1259;73793;-77
2023/08/09 05:27:29;;;;;;;4.90;3.20;;;;;;;18.71;79.83;99927.57;107520;1254;68701;-77
2023/08/09 05:29:56;;;;;;;6.90;3.60;;;;;;;18.77;79.04;99928.64;106168;1256;72456;-78
2023/08/09 05:32:24;;;;;;;5.50;3.60;;;;;;;18.80;78.46;99933.11;106280;1256;60353;-78
2023/08/09 05:34:51;;;;;;;7.70;3.90;;;;;;;18.82;77.84;99932.77;106174;1253;60606;-79
2023/08/09 05:37:19;;;;;;;7.30;3.40;;;;;;;18.87;77.47;99935.34;106071;1254;73656;-80
2023/08/09 05:39:46;;;;;;;3.90;3.30;;;;;;;18.94;76.17;99938.33;106151;1257;69212;-77
2023/08/09 05:42:14;;;;;;;8.10;4.00;;;;;;;18.99;76.02;99935.22;106012;1254;70888;-77
2023/08/09 05:44:41;;;;;;;12.40;4.70;;;;;;;19.01;76.24;99939.76;106079;1256;60435;-77
2023/08/09 05:47:09;;;;;;;6.30;3.40;;;;;;;19.05;75.39;99941.10;106159;1256;60286;-78
2023/08/09 05:49:39;;;;;;;6.00;3.90;;;;;;;19.10;75.54;99946.48;106308;1254;72913;-77
2023/08/09 05:52:06;;;;;;;4.70;3.60;;;;;;;19.18;75.03;99952.89;106308;1259;69303;-77
2023/08/09 05:54:34;;;;;;;7.40;3.20;;;;;;;19.29;74.36;99955.61;106234;1257;72973;-75
2023/08/09 05:57:01;;;;;;;4.90;3.30;;;;;;;19.38;73.39;99955.49;106368;1256;60419;-77
2023/08/09 05:59:29;;;;;;;4.20;3.30;;;;;;;19.43;72.79;99960.71;106452;1256;59128;-77
2023/08/09 06:01:57;;;;;;;6.00;3.70;;;;;;;19.48;72.49;99960.41;106454;1254;73859;-78
2023/08/09 06:04:24;;;;;;;4.90;3.00;;;;;;;19.54;72.98;99965.67;106630;1256;68694;-78
2023/08/09 06:06:52;;;;;;;5.90;3.00;;;;;;;19.64;70.90;99965.13;106867;1253;73486;-78
2023/08/09 06:09:19;;;;;;;6.70;3.50;;;;;;;19.65;69.76;99963.13;107005;1259;60530;-77
2023/08/09 06:11:47;;;;;;;7.00;3.80;;;;;;;19.65;70.04;99965.44;108655;1254;60491;-77
2023/08/09 06:14:14;;;;;;;4.50;3.00;;;;;;;19.69;70.35;99963.08;109100;1253;72579;-78
2023/08/09 06:16:45;;;;;;;4.60;3.80;;;;;;;19.76;69.91;99955.16;108056;1253;69029;-77
2023/08/09 06:19:13;;;;;;;6.60;3.30;;;;;;;19.83;68.59;99956.46;107609;1258;73256;-78
2023/08/09 06:21:42;;;;;;;7.30;3.10;;;;;;;19.91;68.20;99954.27;106686;1256;60501;-76
2023/08/09 06:24:09;;;;;;;3.50;3.10;;;;;;;19.98;68.67;99954.27;106121;1255;60522;-76
2023/08/09 06:26:37;;;;;;;4.20;3.00;;;;;;;20.00;67.43;99957.17;106153;1252;73776;-77
2023/08/09 06:29:05;;;;;;;5.40;3.30;;;;;;;19.96;64.01;99956.36;106506;1254;69990;-77
2023/08/09 06:31:33;;;;;;;8.00;3.80;;;;;;;19.86;63.69;99956.60;106758;1255;73803;-79
2023/08/09 06:34:01;;;;;;;5.70;3.40;;;;;;;19.82;65.87;99957.89;106273;1254;60507;-77
2023/08/09 06:36:29;;;;;;;5.10;3.00;;;;;;;19.84;66.30;99960.42;106866;1254;60489;-78
2023/08/09 06:38:56;;;;;;;5.60;3.00;;;;;;;19.89;65.12;99960.36;107485;1256;73831;-76
2023/08/09 06:41:23;;;;;;;4.10;2.80;;;;;;;19.94;64.39;99960.02;108130;1253;69444;-78
2023/08/09 06:43:51;;;;;;;4.60;2.90;;;;;;;20.04;62.86;99957.77;108866;1254;71087;-77
2023/08/09 06:46:20;;;;;;;6.10;2.90;;;;;;;20.10;63.81;99960.27;107518;1255;60344;-78
2023/08/09 06:48:47;;;;;;;6.10;3.20;;;;;;;20.16;63.76;99961.91;106765;1254;60514;-78
2023/08/09 06:51:15;;;;;;;3.60;2.70;;;;;;;20.23;63.38;99967.88;106218;1252;72362;-76
2023/08/09 06:53:42;;;;;;;5.80;3.20;;;;;;;20.28;63.38;99966.29;106468;1254;72024;-78
2023/08/09 06:56:10;;;;;;;4.90;2.60;;;;;;;20.32;63.40;99960.47;106070;1254;71975;-78
2023/08/09 06:58:37;;;;;;;4.80;3.10;;;;;;;20.36;61.44;99960.70;106260;1253;60440;-78
2023/08/09 07:01:09;;;;;;;6.60;3.30;;;;;;;20.37;62.09;99956.63;106529;1252;60443;-77
2023/08/09 07:03:37;;;;;;;3.40;2.70;;;;;;;20.41;62.38;99956.20;106560;1254;71789;-78
2023/08/09 07:06:04;;;;;;;5.30;2.80;;;;;;;20.45;61.66;99960.45;106389;1254;68321;-77
2023/08/09 07:08:32;;;;;;;6.60;2.60;;;;;;;20.50;61.84;99966.84;106091;1253;72692;-77
2023/08/09 07:11:00;;;;;;;5.90;3.20;;;;;;;20.55;61.40;99963.53;106023;1255;60463;-78
2023/08/09 07:13:27;;;;;;;3.40;2.50;;;;;;;20.59;61.00;99959.00;106196;1252;60443;-78
2023/08/09 07:15:54;;;;;;;5.00;2.50;;;;;;;20.63;60.08;99959.02;106456;1254;72640;-78
2023/08/09 07:18:22;;;;;;;3.50;2.60;;;;;;;20.64;59.99;99958.63;106048;1259;68981;-78
2023/08/09 07:20:49;;;;;;;4.10;2.50;;;;;;;20.65;58.97;99960.89;106214;1256;71789;-80
2023/08/09 07:23:17;;;;;;;4.30;2.60;;;;;;;20.68;59.32;99960.60;106358;1254;60428;-78
2023/08/09 07:26:04;;;;;;;4.90;2.40;;;;;;;20.74;58.90;99960.18;106466;1255;60540;-77
2023/08/09 07:28:31;;;;;;;5.50;2.70;;;;;;;20.80;58.24;99964.45;106161;1254;72487;-78
2023/08/09 07:30:59;;;;;;;4.30;3.00;;;;;;;20.84;57.20;99970.58;106283;1252;70269;-77
2023/08/09 07:33:27;;;;;;;3.80;2.40;;;;;;;20.83;55.80;99969.11;105884;1253;72666;-75
2023/08/09 07:35:55;;;;;;;3.50;2.90;;;;;;;20.77;55.09;99967.93;105916;1254;60351;-75
2023/08/09 07:38:22;;;;;;;3.90;2.10;;;;;;;20.71;55.07;99966.54;105832;1254;60459;-77
2023/08/09 07:40:49;;;;;;;3.00;2.30;;;;;;;20.69;54.65;99965.33;106460;1255;72629;-77
2023/08/09 07:43:17;;;;;;;5.40;2.30;;;;;;;20.68;55.42;99965.38;106265;1257;71506;-78
2023/08/09 07:45:48;;;;;;;2.80;2.50;;;;;;;20.72;55.96;99967.27;105927;1256;71102;-77
2023/08/09 07:48:16;;;;;;;4.30;2.50;;;;;;;20.79;55.74;99969.98;105885;1254;60546;-78
2023/08/09 07:50:43;;;;;;;4.10;2.40;;;;;;;20.87;55.74;99972.62;105917;1254;60385;-77
2023/08/09 07:53:10;;;;;;;3.10;2.60;;;;;;;20.96;55.27;99976.68;105914;1256;72604;-77
2023/08/09 07:55:39;;;;;;;4.50;2.60;;;;;;;21.01;53.07;99973.21;105935;1254;70818;-77
2023/08/09 07:58:06;;;;;;;6.40;2.30;;;;;;;20.96;51.73;99976.04;105839;1254;72698;-79
2023/08/09 08:00:34;;;;;;;4.00;2.70;;;;;;;20.87;51.95;99970.35;105904;1257;60438;-74
2023/08/09 08:03:15;;;;;;;6.10;2.50;;;;;;;20.78;52.16;99970.88;106089;1256;60447;-77
2023/08/09 08:05:42;;;;;;;4.00;2.60;;;;;;;20.78;52.94;99967.40;105845;1254;72604;-76
2023/08/09 08:08:14;;;;;;;3.50;2.30;;;;;;;20.82;53.66;99966.54;106298;1256;69507;-77
2023/08/09 08:10:43;;;;;;;3.80;2.60;;;;;;;20.92;53.70;99963.66;106090;1254;72806;-77
2023/08/09 08:13:11;;;;;;;6.20;2.50;;;;;;;21.02;53.00;99966.66;106235;1258;60542;-76
2023/08/09 08:15:38;;;;;;;5.70;2.40;;;;;;;21.10;52.45;99963.95;106234;1254;60523;-75
2023/08/09 08:18:06;;;;;;;3.60;2.40;;;;;;;21.15;52.20;99955.50;106111;1258;76061;-76
2023/08/09 08:20:34;;;;;;;4.20;3.00;;;;;;;21.19;51.15;99961.00;106495;1254;70745;-77
2023/08/09 08:23:04;;;;;;;2.70;2.20;;;;;;;21.22;51.02;99965.20;106046;1257;71400;-76
2023/08/09 08:25:31;;;;;;;4.70;3.10;;;;;;;21.27;50.48;99968.22;105927;1254;60442;-77
2023/08/09 08:27:58;;;;;;;7.60;2.80;;;;;;;21.31;50.16;99964.05;106055;1256;60454;-76
2023/08/09 08:30:26;;;;;;;4.50;2.70;;;;;;;21.37;49.95;99967.23;105829;1254;73116;-77
2023/08/09 08:32:53;;;;;;;4.70;2.80;;;;;;;21.47;50.66;99967.91;106214;1253;68775;-76
2023/08/09 08:35:21;;;;;;;4.90;3.20;;;;;;;21.61;50.86;99974.45;106375;1254;71571;-77
2023/08/09 08:37:49;;;;;;;3.80;2.60;;;;;;;21.78;50.99;99973.77;106148;1256;60562;-76
2023/08/09 08:40:17;;;;;;;5.90;2.80;;;;;;;21.97;51.39;99969.89;105894;1252;60981;-76
2023/08/09 08:42:46;;;;;;;3.60;2.70;;;;;;;22.16;51.58;99968.13;105866;1259;73768;-77
2023/08/09 08:45:15;;;;;;;5.60;3.10;;;;;;;22.31;50.47;99967.34;105740;1254;70640;-76
2023/08/09 08:47:44;;;;;;;3.20;2.80;;;;;;;22.39;50.19;99969.87;106010;1254;71450;-76
2023/08/09 08:50:13;;;;;;;4.70;2.90;;;;;;;22.43;51.29;99971.02;105868;1255;60549;-77
2023/08/09 08:52:51;;;;;;;6.30;2.70;;;;;;;22.47;50.96;99969.45;105971;1252;60545;-77
2023/08/09 08:55:19;;;;;;;3.10;2.80;;;;;;;22.55;50.90;99969.38;106034;1255;74207;-77
2023/08/09 08:57:48;;;;;;;3.70;3.00;;;;;;;22.66;50.16;99969.63;106021;1256;70096;-77
2023/08/09 09:00:16;;;;;;;6.40;2.90;;;;;;;22.79;49.99;99969.38;105882;1256;71641;-78
2023/08/09 09:02:47;;;;;;;3.70;3.10;;;;;;;22.92;50.03;99972.21;105883;1254;61010;-77
2023/08/09 09:05:16;;;;;;;4.10;3.00;;;;;;;23.02;49.08;99973.64;105861;1254;60472;-77
2023/08/09 09:07:50;;;;;;;3.70;2.50;;;;;;;23.03;48.34;99970.80;106140;1254;73229;-76
2023/08/09 09:10:19;;;;;;;6.60;3.00;;;;;;;23.01;48.67;99977.08;105989;1256;69087;-76
2023/08/09 09:12:51;;;;;;;3.90;3.00;;;;;;;23.06;49.43;99971.83;105932;1254;71214;-76
2023/08/09 09:15:19;;;;;;;3.00;2.50;;;;;;;23.21;47.93;99977.89;106019;1254;60462;-76
2023/08/09 09:17:48;;;;;;;8.10;2.60;;;;;;;23.39;48.77;99977.58;106115;1256;60459;-76
2023/08/09 09:20:24;;;;;;;3.20;2.30;;;;;;;23.61;48.68;99980.52;105997;1257;74206;-76
2023/08/09 09:22:52;;;;;;;3.50;2.30;;;;;;;23.78;46.26;99975.29;105890;1254;70586;-76
2023/08/09 09:25:22;;;;;;;3.70;2.20;;;;;;;23.99;45.70;99979.73;106096;1254;72693;-76
2023/08/09 09:27:55;;;;;;;3.00;2.40;;;;;;;24.36;44.32;99980.79;106171;1255;60466;-77
2023/08/09 09:30:31;;;;;;;3.20;2.40;;;;;;;24.74;43.70;99973.80;107122;1256;60814;-76
2023/08/09 09:33:02;;;;;;;5.20;2.60;;;;;;;25.17;42.75;99969.46;106177;1257;74256;-75
2023/08/09 09:35:31;;;;;;;2.60;2.20;;;;;;;25.61;41.69;99969.20;105901;1255;69946;-77
2023/08/09 09:38:00;;;;;;;3.90;3.10;;;;;;;26.01;40.06;99965.98;106070;1256;73195;-75
2023/08/09 09:40:34;;;;;;;4.00;2.70;;;;;;;26.34;40.29;99964.92;106015;1256;60421;-75
2023/08/09 09:43:07;;;;;;;3.80;2.30;;;;;;;26.69;40.13;99969.67;106131;1256;60648;-74
2023/08/09 09:45:36;;;;;;;3.60;2.10;;;;;;;27.06;39.55;99971.69;106119;1255;71945;-77
2023/08/09 09:48:06;;;;;;;3.20;2.30;;;;;;;27.38;38.64;99969.54;105704;1254;70153;-76
2023/08/09 09:50:34;;;;;;;4.20;2.30;;;;;;;27.62;37.94;99962.13;105548;1254;72519;-77
2023/08/09 09:53:02;;;;;;;5.70;2.40;;;;;;;27.75;37.53;99958.92;106014;1256;60542;-77
2023/08/09 09:55:32;;;;;;;3.50;2.50;;;;;;;27.93;38.13;99959.99;105588;1258;558541;-76
2023/08/09 09:58:41;;;;;;;3.00;2.70;;;;;;;28.37;39.94;99961.78;102926;1290;600991;-77
2023/08/09 10:01:09;;;;;;;3.00;2.30;;;;;;;29.04;37.80;99956.57;105044;1266;59353;-76
2023/08/09 10:03:39;;;;;;;2.20;2.00;;;;;;;29.61;35.32;99959.30;105213;1265;60022;-75
2023/08/09 10:06:21;;;;;;;4.30;2.80;;;;;;;29.78;35.04;99957.00;105218;1266;70142;-77
2023/08/09 10:08:50;;;;;;;4.60;2.50;;;;;;;29.91;35.96;99953.75;104996;1267;70368;-77
2023/08/09 10:11:18;;;;;;;2.70;2.30;;;;;;;30.17;34.98;99959.78;105103;1267;199288;-78
2023/08/09 10:13:46;;;;;;;2.30;2.10;;;;;;;30.27;33.87;99959.16;105318;1265;59279;-77
2023/08/09 10:16:13;;;;;;;2.40;2.20;;;;;;;30.25;33.77;99952.17;105252;1264;59973;-77
2023/08/09 10:18:44;;;;;;;3.10;2.40;;;;;;;30.29;34.39;99951.14;105226;1263;70274;-79
2023/08/09 10:21:14;;;;;;;2.80;2.40;;;;;;;30.54;35.13;99951.64;105326;1269;69963;-76
2023/08/09 10:24:08;;;;;;;4.00;2.90;;;;;;;31.05;33.64;99948.23;105118;1264;74016;-79
2023/08/09 10:26:36;;;;;;;4.00;2.80;;;;;;;31.35;34.44;99943.44;105202;1264;59653;-80
2023/08/09 10:29:08;;;;;;;6.00;2.40;;;;;;;31.69;34.66;99941.59;105440;1263;60092;-79
2023/08/09 10:31:59;;;;;;;4.90;2.60;;;;;;;32.06;32.59;99943.67;105144;1264;72198;-78
2023/08/09 10:34:35;;;;;;;4.10;2.50;;;;;;;32.09;33.22;99944.21;105282;1263;70554;-77
2023/08/09 10:37:04;;;;;;;7.10;2.80;;;;;;;32.10;33.60;99944.79;105341;1264;72678;-78
2023/08/09 10:39:32;;;;;;;3.90;2.90;;;;;;;32.03;33.17;99945.86;105294;1264;60361;-77
2023/08/09 10:42:00;;;;;;;8.90;2.80;;;;;;;31.79;34.17;99944.58;105439;1263;60018;-78
2023/08/09 10:44:43;;;;;;;3.10;2.30;;;;;;;31.71;34.19;99939.29;105362;1264;71801;-76
2023/08/09 10:47:25;;;;;;;2.60;2.10;;;;;;;31.67;34.09;99936.26;105588;1264;69943;-76
2023/08/09 10:49:53;;;;;;;7.20;3.30;;;;;;;31.64;33.32;99934.05;105237;1267;71831;-77
2023/08/09 10:52:21;;;;;;;3.70;2.70;;;;;;;31.42;33.53;99938.84;105305;1264;59621;-75
2023/08/09 10:55:04;;;;;;;3.20;2.60;;;;;;;31.03;32.89;99940.16;105353;1264;59756;-77
2023/08/09 10:57:41;;;;;;;2.90;2.20;;;;;;;30.27;33.94;99938.95;107413;1269;73036;-76
2023/08/09 11:00:12;;;;;;;7.50;2.50;;;;;;;29.54;35.46;99939.50;107826;1266;68998;-76
2023/08/09 11:02:48;;;;;;;6.10;2.70;;;;;;;29.09;36.12;99934.98;107919;1269;71848;-78
2023/08/09 11:05:17;;;;;;;3.00;2.50;;;;;;;28.65;36.43;99940.45;105420;1268;59794;-78
2023/08/09 11:07:49;;;;;;;2.90;2.50;;;;;;;28.34;37.24;99945.58;104970;1269;59336;-77
2023/08/09 11:10:29;;;;;;;2.80;2.60;;;;;;;28.39;37.32;99941.60;105222;1266;73755;-77
2023/08/09 11:12:57;;;;;;;3.60;2.70;;;;;;;28.88;38.14;99939.52;105885;1259;69545;-78
2023/08/09 11:15:24;;;;;;;3.90;2.70;;;;;;;29.59;37.15;99935.77;105579;1258;72488;-77
2023/08/09 11:17:52;;;;;;;2.80;2.50;;;;;;;30.33;36.08;99933.34;106375;1259;59598;-77
2023/08/09 11:20:19;;;;;;;4.20;2.60;;;;;;;30.96;35.00;99929.30;106689;1253;59655;-77
2023/08/09 11:22:57;;;;;;;2.70;2.20;;;;;;;31.50;33.93;99934.31;106031;1254;73570;-77
2023/08/09 11:25:25;;;;;;;3.70;2.50;;;;;;;31.83;32.94;99930.89;106018;1254;69275;-77
2023/08/09 11:27:56;;;;;;;3.00;2.40;;;;;;;31.74;32.53;99933.69;105792;1259;71405;-76
2023/08/09 11:30:24;;;;;;;2.50;2.30;;;;;;;31.42;32.16;99930.39;105717;1256;60197;-78
2023/08/09 11:32:56;;;;;;;3.60;3.30;;;;;;;31.25;32.90;99937.77;105251;1254;61367;-77